Weather at Orlando International Airport

Public forecast

Using degrees Fahrenheit for public forecast. Weather courtesy of forecast.io.

Current aviation weather report (METAR) for Orlando International Airport

Retrieved 2021/01/20 05:53 UTC (42 minutes ago):

KMCO 200553Z 36004KT 10SM FEW250 09/08 A3033 RMK AO2 SLP269 T00940078 10144 20094 56008

Aviation forecast (TAF) for Orlando International Airport

Retrieved 2021/01/20 06:36 UTC (0 seconds ago):

TAF KMCO 200534Z 2006/2112 VRB03KT P6SM FEW250 FM201400 34007KT P6SM FEW300 FM210000 VRB04KT P6SM FEW300